| ตารางข้อมูล | 4529T1 | 4529T2 | 4529T3 | 4529T4 | TH20402 | TH452-9A | TH452-9D | TH814 | ค้นข้อมูล1 | ค้นข้อมูล2 | ค่าสูงสุด-ต่ำสุด |  

Select Sensor -->| 20402 | 452-9A | 452-9D | 4529T1 | 4529T2 | 4529T3 | 4529T4 | 814 | หน้าจอย่อ | 4529 |
ข้อมูลรวม (ยังไม่ได้เลือกรายการ)

IDRoomDate  Temp  Humidity
 102252  452-9D  2020-09-30 10:58:02  29.4  80.0 
 102251  452-9A  2020-09-30 10:58:02  29.2  91.0 
 102250  4529T4  2020-09-30 10:41:40  28.6  0.0 
 102249  4529T3  2020-09-30 10:41:40  28.5  0.0 
 102248  4529T2  2020-09-30 10:41:40  30.5  0.0 
 102247  4529T1  2020-09-30 10:41:40  29.6  0.0 
 102246  20402  2020-09-30 10:40:54  27.9  30.0 
 102245  452-9D  2020-09-30 10:38:00  29.3  80.0 
 102244  452-9A  2020-09-30 10:37:59  29.1  90.7 
 102243  4529T4  2020-09-30 10:21:32  28.6  0.0 
 102242  4529T3  2020-09-30 10:21:32  28.5  0.0 
 102241  4529T2  2020-09-30 10:21:32  29.9  0.0 
 102240  4529T1  2020-09-30 10:21:32  29.1  0.0 
 102239  20402  2020-09-30 10:20:53  27.8  30.7 
 102238  452-9D  2020-09-30 10:17:58  29.3  80.1 
 102237  452-9A  2020-09-30 10:17:57  29.0  91.0 
 102236  4529T4  2020-09-30 10:01:23  28.6  0.0 
 102235  4529T3  2020-09-30 10:01:23  28.5  0.0 
 102234  4529T2  2020-09-30 10:01:23  29.3  0.0 
 102233  4529T1  2020-09-30 10:01:23  28.3  0.0 
 102232  20402  2020-09-30 10:00:53  27.9  31.4 
 102231  452-9A  2020-09-30 09:57:54  28.9  91.0 
 102230  452-9D  2020-09-30 09:57:51  29.3  80.0 
 102229  4529T4  2020-09-30 09:41:15  28.6  0.0 
 102228  4529T3  2020-09-30 09:41:15  28.5  0.0 
 102227  4529T2  2020-09-30 09:41:15  28.5  0.0 
 102226  4529T1  2020-09-30 09:41:15  27.7  0.0 
 102225  20402  2020-09-30 09:40:52  28.0  33.0 
 102224  452-9A  2020-09-30 09:37:52  28.9  91.0 
 102223  452-9D  2020-09-30 09:37:46  29.3  79.9 
 102222  4529T4  2020-09-30 09:21:07  28.6  0.0 
 102221  4529T3  2020-09-30 09:21:07  28.5  0.0 
 102220  4529T2  2020-09-30 09:21:07  28.3  0.0 
 102219  4529T1  2020-09-30 09:21:07  27.1  0.0 
 102218  20402  2020-09-30 09:20:52  28.1  34.3 
 102217  452-9A  2020-09-30 09:17:45  28.8  91.1 
 102216  452-9D  2020-09-30 09:17:41  29.3  79.7 
 102215  4529T4  2020-09-30 09:00:58  28.6  0.0 
 102214  4529T3  2020-09-30 09:00:58  28.6  0.0 
 102213  4529T2  2020-09-30 09:00:58  27.3  0.0 
 102212  4529T1  2020-09-30 09:00:58  26.9  0.0 
 102211  20402  2020-09-30 09:00:52  28.2  36.5 
 102210  452-9A  2020-09-30 08:57:38  28.6  91.0 
 102209  452-9D  2020-09-30 08:57:37  29.3  78.6 
 102208  20402  2020-09-30 08:40:51  28.4  39.4 
 102207  4529T4  2020-09-30 08:40:50  28.6  0.0 
 102206  4529T3  2020-09-30 08:40:50  28.6  0.0 
 102205  4529T2  2020-09-30 08:40:50  26.7  0.0 
 102204  4529T1  2020-09-30 08:40:50  26.1  0.0 
 102203  452-9A  2020-09-30 08:37:36  28.6  90.8 
 102202  452-9D  2020-09-30 08:37:34  29.3  78.0 
 102201  20402  2020-09-30 08:20:51  29.1  43.2 
 102200  4529T4  2020-09-30 08:20:42  28.6  0.0 
 102199  4529T3  2020-09-30 08:20:42  28.6  0.0 
 102198  4529T2  2020-09-30 08:20:42  26.6  0.0 
 102197  4529T1  2020-09-30 08:20:42  25.7  0.0 
 102196  452-9A  2020-09-30 08:17:34  28.6  90.8 
 102195  452-9D  2020-09-30 08:17:32  29.3  77.8 
 102194  20402  2020-09-30 08:00:50  29.3  43.8 
 102193  4529T4  2020-09-30 08:00:33  28.6  0.0 
 102192  4529T3  2020-09-30 08:00:33  28.6  0.0 
 102191  4529T2  2020-09-30 08:00:33  26.1  0.0 
 102190  4529T1  2020-09-30 08:00:33  25.4  0.0 
 102189  452-9D  2020-09-30 07:57:30  29.4  77.7 
 102188  452-9A  2020-09-30 07:57:29  28.6  90.8 
 102187  20402  2020-09-30 07:40:50  29.3  43.8 
 102186  4529T4  2020-09-30 07:40:25  28.7  0.0 
 102185  4529T3  2020-09-30 07:40:25  28.6  0.0 
 102184  4529T2  2020-09-30 07:40:25  26.0  0.0 
 102183  4529T1  2020-09-30 07:40:25  25.6  0.0 
 102182  452-9D  2020-09-30 07:37:27  29.4  77.7 
 102181  452-9A  2020-09-30 07:37:24  28.8  90.7 

Data every 20 minute.